Time;durP1;ratioP1;P1;durP2;ratioP2;P2;SDS_P1;SDS_P2;PMS_P1;PMS_P2;Temp;Humidity;BMP_temperature;BMP_pressure;BME280_temperature;BME280_humidity;BME280_pressure;Samples;Min_cycle;Max_cycle;Signal;HPM_P1;HPM_P2
2022/06/06 00:01:57;;;;;;;6.68;5.70;;;;;;;;;;5075451;28;20050;-80
2022/06/06 00:04:24;;;;;;;10.70;8.10;;;;;;;;;;5056871;28;20032;-79
2022/06/06 00:06:51;;;;;;;6.90;6.20;;;;;;;;;;5074051;28;20170;-79
2022/06/06 00:09:18;;;;;;;7.80;6.15;;;;;;;;;;5074225;28;20120;-79
2022/06/06 00:11:44;;;;;;;10.00;6.10;;;;;;;;;;5091309;28;20020;-79
2022/06/06 00:14:10;;;;;;;7.85;5.85;;;;;;;;;;5087716;28;20082;-78
2022/06/06 00:16:36;;;;;;;7.35;6.43;;;;;;;;;;5067684;28;20085;-80
2022/06/06 00:19:04;;;;;;;6.70;6.00;;;;;;;;;;5078888;28;20029;-77
2022/06/06 00:21:30;;;;;;;8.35;5.35;;;;;;;;;;5076022;28;20036;-78
2022/06/06 00:23:59;;;;;;;6.70;5.68;;;;;;;;;;5074806;28;20059;-77
2022/06/06 00:26:26;;;;;;;7.82;5.75;;;;;;;;;;5055540;28;20078;-78
2022/06/06 00:28:52;;;;;;;7.20;5.70;;;;;;;;;;5070826;28;20104;-78
2022/06/06 00:36:49;;;;;;;8.23;5.32;;;;;;;;;;5070544;28;20031;-78
2022/06/06 00:39:16;;;;;;;7.72;5.90;;;;;;;;;;5073828;28;20036;-77
2022/06/06 00:41:46;;;;;;;7.05;6.10;;;;;;;;;;5084385;28;20497;-77
2022/06/06 00:44:19;;;;;;;9.70;6.05;;;;;;;;;;5054882;28;20119;-78
2022/06/06 00:46:49;;;;;;;8.48;5.97;;;;;;;;;;5060836;28;20031;-77
2022/06/06 00:49:18;;;;;;;8.18;6.07;;;;;;;;;;5072267;28;20543;-77
2022/06/06 00:51:46;;;;;;;7.20;6.10;;;;;;;;;;5055980;28;20032;-78
2022/06/06 00:54:13;;;;;;;11.85;6.82;;;;;;;;;;5079031;28;20977;-77
2022/06/06 00:56:48;;;;;;;11.27;7.60;;;;;;;;;;5068082;28;20123;-77
2022/06/06 00:59:22;;;;;;;9.25;6.85;;;;;;;;;;5063008;28;20021;-77
2022/06/06 01:01:49;;;;;;;9.27;6.10;;;;;;;;;;5068492;28;20025;-78
2022/06/06 01:04:17;;;;;;;7.22;6.20;;;;;;;;;;5040406;28;20033;-78
2022/06/06 01:06:45;;;;;;;8.00;6.05;;;;;;;;;;5058332;28;20033;-80
2022/06/06 01:09:12;;;;;;;6.22;5.47;;;;;;;;;;5039716;28;20528;-79
2022/06/06 01:11:41;;;;;;;7.78;6.20;;;;;;;;;;5055549;28;20028;-78
2022/06/06 01:14:08;;;;;;;8.65;5.82;;;;;;;;;;5072704;28;20060;-77
2022/06/06 01:16:35;;;;;;;7.93;5.97;;;;;;;;;;5077937;28;20035;-77
2022/06/06 01:19:16;;;;;;;9.48;6.75;;;;;;;;;;5075233;28;20465;-77
2022/06/06 01:22:01;;;;;;;6.57;5.88;;;;;;;;;;5073676;28;20024;-78
2022/06/06 01:24:46;;;;;;;7.32;5.90;;;;;;;;;;5071111;28;20036;-78
2022/06/06 01:27:16;;;;;;;6.53;5.88;;;;;;;;;;5058050;28;20020;-77
2022/06/06 01:29:45;;;;;;;7.32;5.90;;;;;;;;;;5049015;28;20025;-79
2022/06/06 01:32:13;;;;;;;9.00;5.95;;;;;;;;;;5049569;28;20025;-79
2022/06/06 01:34:41;;;;;;;7.38;5.88;;;;;;;;;;5070743;28;20028;-79
2022/06/06 01:37:25;;;;;;;8.05;5.93;;;;;;;;;;5062810;28;20510;-79
2022/06/06 01:39:51;;;;;;;7.05;6.30;;;;;;;;;;5070624;28;20095;-78
2022/06/06 01:42:27;;;;;;;7.65;6.18;;;;;;;;;;5077197;28;20036;-78
2022/06/06 01:45:07;;;;;;;9.45;6.50;;;;;;;;;;5064752;28;20021;-78
2022/06/06 01:47:40;;;;;;;6.80;5.82;;;;;;;;;;5058531;28;20446;-78
2022/06/06 01:50:07;;;;;;;7.43;5.97;;;;;;;;;;5078819;28;20032;-78
2022/06/06 01:52:51;;;;;;;8.15;5.75;;;;;;;;;;5083169;28;20025;-77
2022/06/06 01:55:17;;;;;;;6.13;5.53;;;;;;;;;;5083761;28;20505;-79
2022/06/06 01:57:45;;;;;;;6.20;5.60;;;;;;;;;;5075448;28;20033;-79
2022/06/06 02:00:11;;;;;;;7.18;5.60;;;;;;;;;;5057799;28;20033;-77
2022/06/06 02:02:39;;;;;;;7.43;5.72;;;;;;;;;;5049944;28;21454;-77
2022/06/06 02:05:06;;;;;;;7.70;6.57;;;;;;;;;;5045941;28;20048;-77
2022/06/06 02:07:33;;;;;;;7.43;6.72;;;;;;;;;;5042246;28;20036;-78
2022/06/06 02:09:59;;;;;;;8.02;6.75;;;;;;;;;;5054584;28;20135;-78
2022/06/06 02:12:25;;;;;;;8.18;6.50;;;;;;;;;;5077095;28;20153;-78
2022/06/06 02:14:51;;;;;;;10.00;5.82;;;;;;;;;;5067101;28;20037;-78
2022/06/06 02:17:17;;;;;;;9.90;6.00;;;;;;;;;;5058842;28;20462;-79
2022/06/06 02:19:43;;;;;;;7.20;5.97;;;;;;;;;;5078829;28;20031;-77
2022/06/06 02:22:10;;;;;;;9.77;6.20;;;;;;;;;;5059177;28;20021;-78
2022/06/06 02:24:36;;;;;;;8.93;6.18;;;;;;;;;;5077842;28;20514;-79
2022/06/06 02:27:02;;;;;;;6.70;5.38;;;;;;;;;;5075996;28;20028;-79
2022/06/06 02:29:29;;;;;;;9.52;6.10;;;;;;;;;;5062905;28;20029;-77
2022/06/06 02:31:59;;;;;;;6.88;6.18;;;;;;;;;;5067331;28;20037;-78
2022/06/06 02:34:25;;;;;;;7.88;6.10;;;;;;;;;;5061089;28;20040;-77
2022/06/06 02:36:51;;;;;;;6.47;5.78;;;;;;;;;;5074613;28;20489;-77
2022/06/06 02:39:17;;;;;;;6.53;5.82;;;;;;;;;;5041353;28;20047;-78
2022/06/06 02:41:44;;;;;;;6.95;6.05;;;;;;;;;;5058494;28;20017;-78
2022/06/06 02:44:10;;;;;;;6.25;5.60;;;;;;;;;;5064087;28;20139;-78
2022/06/06 02:46:36;;;;;;;7.95;5.68;;;;;;;;;;5075161;28;20033;-77
2022/06/06 02:49:03;;;;;;;6.25;5.55;;;;;;;;;;5056640;28;20473;-78
2022/06/06 02:51:29;;;;;;;6.85;6.07;;;;;;;;;;5075984;28;20040;-77
2022/06/06 02:53:55;;;;;;;6.90;5.20;;;;;;;;;;5069193;28;20044;-78
2022/06/06 02:56:21;;;;;;;6.40;5.60;;;;;;;;;;5046328;28;20508;-77
2022/06/06 02:58:48;;;;;;;6.80;5.70;;;;;;;;;;5076402;28;20070;-76
2022/06/06 03:01:15;;;;;;;8.75;5.57;;;;;;;;;;5088447;28;20028;-78
2022/06/06 03:03:41;;;;;;;7.78;6.00;;;;;;;;;;5075765;28;20024;-78
2022/06/06 03:06:10;;;;;;;6.60;5.47;;;;;;;;;;5075743;28;20449;-78
2022/06/06 03:08:36;;;;;;;8.10;5.25;;;;;;;;;;5073874;28;20565;-78
2022/06/06 03:11:08;;;;;;;7.60;5.53;;;;;;;;;;5075872;28;20551;-78
2022/06/06 03:13:57;;;;;;;8.25;5.40;;;;;;;;;;5073787;28;20052;-77
2022/06/06 03:22:20;;;;;;;6.00;5.40;;;;;;;;;;5074168;28;20505;-77
2022/06/06 03:24:46;;;;;;;8.88;5.07;;;;;;;;;;5067059;28;20020;-77
2022/06/06 03:27:26;;;;;;;7.82;5.20;;;;;;;;;;5075457;28;20025;-77
2022/06/06 03:29:54;;;;;;;6.90;5.32;;;;;;;;;;5074946;28;20028;-77
2022/06/06 03:32:27;;;;;;;7.82;5.45;;;;;;;;;;5075454;28;20028;-77
2022/06/06 03:35:05;;;;;;;8.05;5.40;;;;;;;;;;5075483;28;20071;-77
2022/06/06 03:37:31;;;;;;;5.80;5.22;;;;;;;;;;5084518;28;20059;-77
2022/06/06 03:40:09;;;;;;;8.60;5.25;;;;;;;;;;5056047;28;20115;-77
2022/06/06 03:42:39;;;;;;;5.57;5.03;;;;;;;;;;5075088;28;20021;-77
2022/06/06 03:45:24;;;;;;;6.53;5.32;;;;;;;;;;5075298;28;20028;-77
2022/06/06 03:48:08;;;;;;;6.70;5.03;;;;;;;;;;5055321;28;20561;-77
2022/06/06 03:50:38;;;;;;;9.35;5.22;;;;;;;;;;5072535;28;20103;-77
2022/06/06 03:53:22;;;;;;;8.95;5.18;;;;;;;;;;5063421;28;20028;-78
2022/06/06 03:55:51;;;;;;;6.00;5.40;;;;;;;;;;5048330;28;20064;-78
2022/06/06 03:58:19;;;;;;;12.38;5.45;;;;;;;;;;5059854;28;20023;-78
2022/06/06 04:00:48;;;;;;;9.00;5.30;;;;;;;;;;5049221;28;20029;-77
2022/06/06 04:03:16;;;;;;;6.38;5.53;;;;;;;;;;5062431;28;20138;-78
2022/06/06 04:05:43;;;;;;;5.55;5.05;;;;;;;;;;5081690;28;20021;-78
2022/06/06 04:08:10;;;;;;;6.40;5.30;;;;;;;;;;5067533;28;20045;-78
2022/06/06 04:10:49;;;;;;;10.30;5.50;;;;;;;;;;5074440;28;20064;-76
2022/06/06 04:13:33;;;;;;;7.32;5.20;;;;;;;;;;5074481;28;20029;-77
2022/06/06 04:16:07;;;;;;;7.68;5.22;;;;;;;;;;5036790;28;20490;-77
2022/06/06 04:19:02;;;;;;;6.97;5.47;;;;;;;;;;5074333;28;20493;-78
2022/06/06 04:21:45;;;;;;;7.85;5.68;;;;;;;;;;4959882;28;20037;-78
2022/06/06 04:24:21;;;;;;;7.15;6.40;;;;;;;;;;4956075;28;20034;-77
2022/06/06 04:26:50;;;;;;;12.18;5.82;;;;;;;;;;4976196;28;20435;-77
2022/06/06 04:29:31;;;;;;;9.52;5.90;;;;;;;;;;4954239;29;20038;-77
2022/06/06 04:32:05;;;;;;;8.82;5.72;;;;;;;;;;4974118;28;20042;-77
2022/06/06 04:34:52;;;;;;;11.20;6.20;;;;;;;;;;4977406;28;20042;-77
2022/06/06 04:37:28;;;;;;;10.10;6.20;;;;;;;;;;4982695;28;20500;-77
2022/06/06 04:40:12;;;;;;;10.80;6.75;;;;;;;;;;4974963;28;20040;-76
2022/06/06 04:42:38;;;;;;;;;;;;;;;;;;4973516;28;20045;-78
2022/06/06 04:45:10;;;;;;;11.02;6.90;;;;;;;;;;4972351;28;20299;-77
2022/06/06 04:47:37;;;;;;;13.05;7.03;;;;;;;;;;4972432;28;20059;-77
2022/06/06 04:50:05;;;;;;;7.43;6.20;;;;;;;;;;4972012;28;20077;-76
2022/06/06 04:52:32;;;;;;;24.25;7.50;;;;;;;;;;4967381;28;20038;-76
2022/06/06 04:54:59;;;;;;;8.15;6.15;;;;;;;;;;4991350;28;20089;-77
2022/06/06 04:57:25;;;;;;;9.88;5.88;;;;;;;;;;5024973;28;20032;-77
2022/06/06 04:59:52;;;;;;;10.60;6.40;;;;;;;;;;5092399;28;20083;-77
2022/06/06 05:02:21;;;;;;;7.40;6.00;;;;;;;;;;5081245;28;20032;-75
2022/06/06 05:04:48;;;;;;;11.30;6.00;;;;;;;;;;5073678;28;20032;-76
2022/06/06 05:07:14;;;;;;;9.10;5.40;;;;;;;;;;5086106;28;20481;-76
2022/06/06 05:09:50;;;;;;;6.20;5.40;;;;;;;;;;5092468;28;20036;-74
2022/06/06 05:12:20;;;;;;;7.80;5.30;;;;;;;;;;5052273;28;20032;-75
2022/06/06 05:14:55;;;;;;;6.07;5.10;;;;;;;;;;5053625;28;20041;-75
2022/06/06 05:17:27;;;;;;;11.05;5.22;;;;;;;;;;5060554;28;20027;-86
2022/06/06 05:20:04;;;;;;;11.15;4.97;;;;;;;;;;5067128;28;20031;-90
2022/06/06 05:22:44;;;;;;;7.70;4.85;;;;;;;;;;5073357;28;20062;-87
2022/06/06 05:25:13;;;;;;;5.43;4.35;;;;;;;;;;5072032;28;20024;-81
2022/06/06 05:27:50;;;;;;;5.68;4.63;;;;;;;;;;5056332;28;20086;-89
2022/06/06 05:30:20;;;;;;;84.13;9.25;;;;;;;;;;5075680;28;20016;-81
2022/06/06 05:32:55;;;;;;;5.70;4.47;;;;;;;;;;5053701;28;20020;-88
2022/06/06 05:35:28;;;;;;;15.18;5.47;;;;;;;;;;5059610;28;20082;-84
2022/06/06 05:38:12;;;;;;;16.07;4.70;;;;;;;;;;5072329;28;20020;-81
2022/06/06 05:40:38;;;;;;;16.23;4.88;;;;;;;;;;5074435;28;20027;-79
2022/06/06 05:43:20;;;;;;;16.85;5.05;;;;;;;;;;5070282;28;20021;-79
2022/06/06 05:45:54;;;;;;;7.55;4.90;;;;;;;;;;5070605;28;20063;-77
2022/06/06 05:48:20;;;;;;;10.20;4.28;;;;;;;;;;5069466;28;20102;-79
2022/06/06 05:50:59;;;;;;;9.23;4.10;;;;;;;;;;5071963;28;20098;-80
2022/06/06 05:53:31;;;;;;;5.93;4.00;;;;;;;;;;5072505;28;20032;-79
2022/06/06 05:56:03;;;;;;;10.45;3.60;;;;;;;;;;5069748;28;20032;-80
2022/06/06 05:58:31;;;;;;;5.88;3.88;;;;;;;;;;5059795;28;20380;-75
2022/06/06 06:00:57;;;;;;;12.30;4.03;;;;;;;;;;5066437;28;20021;-82
2022/06/06 06:03:42;;;;;;;8.60;3.60;;;;;;;;;;5055062;28;20025;-83
2022/06/06 06:06:12;;;;;;;12.18;4.28;;;;;;;;;;5070452;28;20140;-74
2022/06/06 06:08:47;;;;;;;12.90;4.10;;;;;;;;;;5071420;28;20086;-76
2022/06/06 06:11:22;;;;;;;7.30;4.03;;;;;;;;;;5071587;28;20024;-82
2022/06/06 06:13:54;;;;;;;8.65;4.20;;;;;;;;;;5072310;28;20428;-79
2022/06/06 06:16:26;;;;;;;9.65;5.13;;;;;;;;;;5051521;28;20047;-72
2022/06/06 06:19:13;;;;;;;12.07;4.40;;;;;;;;;;5071280;28;20021;-74
2022/06/06 06:21:50;;;;;;;9.55;4.22;;;;;;;;;;5066282;28;20029;-77
2022/06/06 06:24:18;;;;;;;6.18;3.42;;;;;;;;;;5066756;28;20055;-86
2022/06/06 06:26:45;;;;;;;11.82;3.80;;;;;;;;;;5066312;28;20041;-83
2022/06/06 06:29:11;;;;;;;11.50;3.42;;;;;;;;;;5073723;28;20032;-78
2022/06/06 06:31:56;;;;;;;8.05;3.47;;;;;;;;;;5070104;28;20064;-81
2022/06/06 06:34:41;;;;;;;8.82;3.40;;;;;;;;;;5069191;28;20025;-81
2022/06/06 06:37:17;;;;;;;5.15;3.17;;;;;;;;;;5071576;28;20028;-81
2022/06/06 06:39:49;;;;;;;6.60;3.33;;;;;;;;;;5072151;28;20025;-82
2022/06/06 06:42:24;;;;;;;4.78;3.47;;;;;;;;;;5063918;28;20555;-88
2022/06/06 06:44:55;;;;;;;7.38;3.53;;;;;;;;;;5061771;28;20028;-87
2022/06/06 06:47:30;;;;;;;10.15;3.60;;;;;;;;;;5072074;28;20024;-81
2022/06/06 06:50:08;;;;;;;8.05;3.70;;;;;;;;;;5067116;28;20020;-82
2022/06/06 06:52:52;;;;;;;8.50;3.40;;;;;;;;;;5071464;28;20031;-76
2022/06/06 06:55:36;;;;;;;20.30;3.75;;;;;;;;;;5063859;28;20489;-84
2022/06/06 06:58:08;;;;;;;7.57;3.67;;;;;;;;;;5072308;28;20017;-87
2022/06/06 07:00:53;;;;;;;7.93;3.60;;;;;;;;;;5065208;28;20474;-84
2022/06/06 07:09:23;;;;;;;8.20;4.10;;;;;;;;;;5075824;28;20408;-81
2022/06/06 07:12:08;;;;;;;8.20;3.53;;;;;;;;;;5057192;28;20037;-84
2022/06/06 07:14:49;;;;;;;8.85;4.03;;;;;;;;;;5058380;28;20560;-83
2022/06/06 07:17:16;;;;;;;15.68;4.60;;;;;;;;;;5076255;28;20108;-84
2022/06/06 07:19:46;;;;;;;6.95;4.10;;;;;;;;;;5056680;28;20032;-77
2022/06/06 07:22:13;;;;;;;13.98;4.85;;;;;;;;;;5055057;28;20029;-80
2022/06/06 07:24:39;;;;;;;6.30;3.13;;;;;;;;;;5058943;28;20068;-80
2022/06/06 07:27:07;;;;;;;7.90;3.60;;;;;;;;;;5071828;28;20024;-80
2022/06/06 07:29:33;;;;;;;8.93;3.70;;;;;;;;;;5073974;28;20025;-80
2022/06/06 07:32:06;;;;;;;8.63;3.90;;;;;;;;;;5073548;28;20485;-80
2022/06/06 07:34:35;;;;;;;8.27;3.60;;;;;;;;;;5057479;28;20513;-81
2022/06/06 07:37:19;;;;;;;7.13;3.30;;;;;;;;;;5053718;28;20039;-79
2022/06/06 07:39:48;;;;;;;7.25;3.35;;;;;;;;;;5072773;28;20104;-79
2022/06/06 07:42:17;;;;;;;5.97;3.30;;;;;;;;;;5073690;28;20111;-76
2022/06/06 07:45:24;;;;;;;9.85;3.47;;;;;;;;;;5071444;28;20051;-78
2022/06/06 07:47:59;;;;;;;9.15;3.60;;;;;;;;;;4991084;28;20022;-80
2022/06/06 07:50:29;;;;;;;4.65;3.33;;;;;;;;;;4992547;28;20480;-78
2022/06/06 07:53:13;;;;;;;7.32;3.10;;;;;;;;;;4991088;28;20150;-82
2022/06/06 07:55:40;;;;;;;8.25;3.45;;;;;;;;;;4982687;28;20046;-79
2022/06/06 07:58:15;;;;;;;6.80;3.40;;;;;;;;;;4978254;28;20069;-76
2022/06/06 08:00:42;;;;;;;6.60;3.20;;;;;;;;;;4974890;28;20150;-79
2022/06/06 08:03:14;;;;;;;10.18;3.00;;;;;;;;;;4975847;28;20033;-78
2022/06/06 08:05:43;;;;;;;47.38;5.93;;;;;;;;;;4994626;28;20516;-79
2022/06/06 08:08:28;;;;;;;9.35;3.90;;;;;;;;;;4979687;28;20702;-76
2022/06/06 08:10:54;;;;;;;11.05;3.80;;;;;;;;;;4997400;28;20040;-77
2022/06/06 08:13:31;;;;;;;7.97;3.40;;;;;;;;;;4989159;28;20109;-81
2022/06/06 08:16:15;;;;;;;7.68;3.25;;;;;;;;;;4984001;28;20149;-77
2022/06/06 08:18:53;;;;;;;8.77;3.13;;;;;;;;;;5033647;28;20110;-79
2022/06/06 08:21:33;;;;;;;15.02;3.90;;;;;;;;;;5051984;28;20055;-81
2022/06/06 08:24:01;;;;;;;9.02;3.00;;;;;;;;;;5067589;28;20044;-82
2022/06/06 08:26:28;;;;;;;8.82;3.40;;;;;;;;;;5071814;28;20075;-77
2022/06/06 08:28:54;;;;;;;6.05;3.05;;;;;;;;;;5077932;28;20032;-77
2022/06/06 08:31:20;;;;;;;13.15;3.85;;;;;;;;;;5073305;28;20478;-78
2022/06/06 08:33:47;;;;;;;6.75;3.50;;;;;;;;;;5073365;28;20111;-78
2022/06/06 08:36:14;;;;;;;7.15;3.80;;;;;;;;;;5072477;28;20116;-76
2022/06/06 08:38:50;;;;;;;12.77;3.50;;;;;;;;;;5071542;28;20429;-76
2022/06/06 08:41:35;;;;;;;9.32;3.20;;;;;;;;;;5065960;28;20090;-77
2022/06/06 08:44:18;;;;;;;5.40;3.53;;;;;;;;;;5072924;28;20482;-83
2022/06/06 08:46:58;;;;;;;9.15;3.97;;;;;;;;;;5072530;28;20377;-80
2022/06/06 08:52:54;;;;;;;10.77;3.10;;;;;;;;;;4969848;28;20714;-75
2022/06/06 08:55:42;;;;;;;8.97;3.00;;;;;;;;;;4970408;28;20122;-74
2022/06/06 08:58:35;;;;;;;6.38;3.50;;;;;;;;;;4963105;28;20463;-76
2022/06/06 09:01:20;;;;;;;5.25;3.05;;;;;;;;;;4971187;28;20382;-75
2022/06/06 09:03:48;;;;;;;10.70;3.55;;;;;;;;;;4968230;28;20552;-75
2022/06/06 09:06:32;;;;;;;8.57;2.90;;;;;;;;;;4967913;28;20176;-77
2022/06/06 09:08:58;;;;;;;8.75;3.15;;;;;;;;;;4971743;28;20057;-85
2022/06/06 09:11:39;;;;;;;5.90;3.22;;;;;;;;;;4972767;28;20074;-83
2022/06/06 09:14:25;;;;;;;20.67;3.95;;;;;;;;;;4971438;28;20370;-81
2022/06/06 09:16:54;;;;;;;7.72;3.50;;;;;;;;;;4970326;28;20043;-74
2022/06/06 09:19:29;;;;;;;6.82;3.38;;;;;;;;;;4969098;28;20042;-78
2022/06/06 09:22:04;;;;;;;12.10;3.60;;;;;;;;;;4969352;28;20030;-88
2022/06/06 09:24:33;;;;;;;8.23;3.47;;;;;;;;;;5046759;28;20031;-79
2022/06/06 09:26:59;;;;;;;12.20;4.10;;;;;;;;;;5052463;28;20086;-75
2022/06/06 09:29:34;;;;;;;7.85;3.38;;;;;;;;;;5069725;28;20017;-81
2022/06/06 09:32:15;;;;;;;9.60;3.17;;;;;;;;;;5075458;28;20048;-84
2022/06/06 09:34:44;;;;;;;14.63;3.10;;;;;;;;;;5068672;28;20039;-79
2022/06/06 09:37:10;;;;;;;12.88;3.38;;;;;;;;;;5075633;28;20123;-75
2022/06/06 09:40:03;;;;;;;19.67;5.13;;;;;;;;;;5063629;28;20083;-78
2022/06/06 09:42:32;;;;;;;9.90;3.28;;;;;;;;;;4992345;28;20567;-79
2022/06/06 09:44:58;;;;;;;7.97;3.00;;;;;;;;;;4992734;28;20081;-85
2022/06/06 09:47:24;;;;;;;18.05;3.70;;;;;;;;;;5010110;28;20049;-82
2022/06/06 09:50:02;;;;;;;6.60;3.05;;;;;;;;;;4993968;28;20026;-79
2022/06/06 09:52:47;;;;;;;9.10;3.30;;;;;;;;;;4992424;28;20109;-77
2022/06/06 10:01:06;;;;;;;15.07;3.30;;;;;;;;;;5007973;28;20069;-77
2022/06/06 10:03:38;;;;;;;10.07;3.28;;;;;;;;;;5010074;28;20038;-77
2022/06/06 10:06:15;;;;;;;9.80;3.17;;;;;;;;;;5007786;28;20080;-76
2022/06/06 10:09:00;;;;;;;4.10;2.72;;;;;;;;;;4993668;28;20048;-76
2022/06/06 10:11:35;;;;;;;7.80;2.95;;;;;;;;;;5021027;28;20597;-77
2022/06/06 10:14:01;;;;;;;8.57;3.17;;;;;;;;;;5009811;28;20117;-77
2022/06/06 10:16:35;;;;;;;7.57;2.85;;;;;;;;;;4990803;28;20034;-77
2022/06/06 10:19:01;;;;;;;8.63;3.47;;;;;;;;;;5016498;28;20390;-77
2022/06/06 10:21:27;;;;;;;8.93;2.88;;;;;;;;;;5065509;28;20189;-78
2022/06/06 10:23:53;;;;;;;5.70;2.75;;;;;;;;;;5053720;28;20025;-77
2022/06/06 10:26:38;;;;;;;8.50;3.03;;;;;;;;;;5072322;28;20032;-78
2022/06/06 10:29:19;;;;;;;7.68;2.83;;;;;;;;;;5060838;28;20043;-78
2022/06/06 10:31:56;;;;;;;9.02;2.80;;;;;;;;;;5054008;28;20025;-78
2022/06/06 10:34:39;;;;;;;9.27;2.58;;;;;;;;;;5072030;28;20036;-81
2022/06/06 10:37:13;;;;;;;6.22;2.70;;;;;;;;;;5074840;28;20036;-77
2022/06/06 10:39:58;;;;;;;7.43;2.55;;;;;;;;;;5072632;28;20220;-77
2022/06/06 10:42:35;;;;;;;5.75;2.90;;;;;;;;;;5064962;28;20024;-81
2022/06/06 10:45:12;;;;;;;9.75;2.95;;;;;;;;;;5055357;28;20020;-80
2022/06/06 10:47:59;;;;;;;10.18;3.55;;;;;;;;;;5062174;28;20969;-80
2022/06/06 10:51:36;;;;;;;16.13;3.30;;;;;;;;;;4957052;28;20563;-78
2022/06/06 10:53:41;;;;;;;7.63;3.95;;;;;;;;;;4971827;28;20035;-74
2022/06/06 10:56:34;;;;;;;19.13;4.97;;;;;;;;;;4969607;28;20070;-78
2022/06/06 10:59:12;;;;;;;11.80;4.00;;;;;;;;;;4978241;28;20500;-82
2022/06/06 11:02:00;;;;;;;28.55;4.35;;;;;;;;;;4957901;28;20043;-78
2022/06/06 11:04:41;;;;;;;6.97;2.97;;;;;;;;;;4968789;28;20031;-77
2022/06/06 11:07:07;;;;;;;4.43;2.70;;;;;;;;;;4971007;28;20488;-84
2022/06/06 11:09:42;;;;;;;14.82;3.08;;;;;;;;;;4973397;28;20051;-78
2022/06/06 11:12:31;;;;;;;7.53;2.63;;;;;;;;;;4972489;28;20060;-78
2022/06/06 11:14:59;;;;;;;6.80;2.70;;;;;;;;;;4972269;28;20444;-84
2022/06/06 11:17:43;;;;;;;6.70;2.90;;;;;;;;;;4973445;28;20031;-79
2022/06/06 11:20:09;;;;;;;10.23;2.85;;;;;;;;;;4969650;28;20811;-76
2022/06/06 11:22:56;;;;;;;4.38;2.42;;;;;;;;;;4958302;28;20030;-75
2022/06/06 11:25:22;;;;;;;8.32;3.40;;;;;;;;;;4949766;28;20089;-77
2022/06/06 11:27:57;;;;;;;13.95;3.92;;;;;;;;;;5022723;28;20036;-75
2022/06/06 11:30:23;;;;;;;7.93;3.70;;;;;;;;;;5054848;28;20374;-77
2022/06/06 11:32:55;;;;;;;10.13;3.25;;;;;;;;;;5054625;28;20021;-76
2022/06/06 11:35:21;;;;;;;10.70;3.75;;;;;;;;;;5054689;28;20442;-76
2022/06/06 11:38:14;;;;;;;18.33;3.42;;;;;;;;;;5054486;28;20142;-76
2022/06/06 11:41:01;;;;;;;9.05;3.60;;;;;;;;;;5049701;28;20114;-76
2022/06/06 11:43:30;;;;;;;9.75;3.15;;;;;;;;;;5054582;28;20036;-76
2022/06/06 11:45:59;;;;;;;5.70;2.70;;;;;;;;;;5053161;28;20021;-76
2022/06/06 11:48:34;;;;;;;5.88;2.97;;;;;;;;;;5042703;28;20099;-76
2022/06/06 11:51:15;;;;;;;14.32;3.30;;;;;;;;;;5051533;28;20457;-75
2022/06/06 11:53:43;;;;;;;7.63;3.22;;;;;;;;;;5054349;28;20094;-76
2022/06/06 11:56:09;;;;;;;23.52;3.50;;;;;;;;;;5053875;28;20036;-76
2022/06/06 11:58:58;;;;;;;11.75;3.70;;;;;;;;;;5053232;28;20092;-76
2022/06/06 12:01:43;;;;;;;6.78;3.60;;;;;;;;;;5053917;28;20454;-76
2022/06/06 12:04:24;;;;;;;6.55;3.53;;;;;;;;;;5053476;28;20087;-76
2022/06/06 12:07:02;;;;;;;8.88;3.78;;;;;;;;;;5062758;28;20029;-77
2022/06/06 12:09:47;;;;;;;8.15;3.33;;;;;;;;;;5067232;28;20036;-76
2022/06/06 12:12:18;;;;;;;6.03;2.95;;;;;;;;;;5066809;28;20024;-77
2022/06/06 12:14:56;;;;;;;8.93;3.42;;;;;;;;;;5072782;28;20033;-79
2022/06/06 12:17:35;;;;;;;11.77;4.53;;;;;;;;;;5060584;28;20051;-78
2022/06/06 12:20:10;;;;;;;7.10;3.63;;;;;;;;;;5069621;28;20020;-80
2022/06/06 12:22:47;;;;;;;29.58;3.72;;;;;;;;;;5055738;28;20032;-79
2022/06/06 12:25:26;;;;;;;7.97;2.92;;;;;;;;;;5053018;28;20043;-79
2022/06/06 12:27:55;;;;;;;5.50;2.60;;;;;;;;;;5072611;28;20486;-77
2022/06/06 12:30:31;;;;;;;6.22;2.60;;;;;;;;;;5073010;28;20053;-82
2022/06/06 12:32:58;;;;;;;5.72;2.60;;;;;;;;;;5053744;28;20112;-74
2022/06/06 12:35:25;;;;;;;4.32;2.55;;;;;;;;;;5072010;28;20028;-86
2022/06/06 12:38:00;;;;;;;22.05;3.38;;;;;;;;;;5066578;28;20059;-80
2022/06/06 12:40:38;;;;;;;15.13;2.95;;;;;;;;;;5045982;28;20116;-77
2022/06/06 12:43:13;;;;;;;4.50;2.35;;;;;;;;;;5064379;28;20149;-78
2022/06/06 12:45:48;;;;;;;6.38;3.10;;;;;;;;;;5048473;28;20167;-82
2022/06/06 12:48:26;;;;;;;5.50;4.13;;;;;;;;;;5069726;28;20028;-84
2022/06/06 12:51:07;;;;;;;3.35;2.60;;;;;;;;;;5072571;28;20506;-82
2022/06/06 12:53:40;;;;;;;7.43;3.30;;;;;;;;;;5072841;28;20040;-76
2022/06/06 12:56:17;;;;;;;3.50;2.27;;;;;;;;;;5068044;28;20029;-77
2022/06/06 12:58:58;;;;;;;15.10;3.22;;;;;;;;;;5053312;28;20024;-80
2022/06/06 13:01:40;;;;;;;10.63;3.28;;;;;;;;;;5062971;28;20108;-79
2022/06/06 13:04:24;;;;;;;8.50;2.90;;;;;;;;;;5052690;28;20443;-85
2022/06/06 13:07:15;;;;;;;8.15;4.97;;;;;;;;;;5073243;28;20028;-83
2022/06/06 13:09:47;;;;;;;13.60;3.65;;;;;;;;;;5074422;28;20123;-78
2022/06/06 13:12:20;;;;;;;8.60;2.38;;;;;;;;;;5071923;28;20059;-88
2022/06/06 13:15:20;;;;;;;8.10;3.10;;;;;;;;;;5073925;28;20028;-78
2022/06/06 13:17:55;;;;;;;9.32;2.60;;;;;;;;;;4991147;28;20038;-79
2022/06/06 13:20:30;;;;;;;7.35;2.60;;;;;;;;;;4990973;28;20492;-80
2022/06/06 13:22:56;;;;;;;8.73;2.83;;;;;;;;;;4991964;28;20065;-85
2022/06/06 13:25:25;;;;;;;15.55;3.78;;;;;;;;;;4991675;28;20113;-83
2022/06/06 13:27:51;;;;;;;10.82;4.00;;;;;;;;;;4998907;28;20156;-84
2022/06/06 13:30:22;;;;;;;5.80;2.53;;;;;;;;;;4994139;28;20078;-85
2022/06/06 13:32:51;;;;;;;13.68;3.67;;;;;;;;;;4974317;28;20037;-81
2022/06/06 13:35:23;;;;;;;6.45;2.63;;;;;;;;;;4990718;28;20042;-85
2022/06/06 13:37:55;;;;;;;4.10;2.87;;;;;;;;;;4991252;28;20492;-78
2022/06/06 13:40:29;;;;;;;3.63;2.40;;;;;;;;;;4991345;28;20046;-85
2022/06/06 13:42:56;;;;;;;6.05;3.03;;;;;;;;;;4997121;28;20026;-78
2022/06/06 13:45:25;;;;;;;4.60;2.50;;;;;;;;;;4985270;28;20507;-82
2022/06/06 13:47:54;;;;;;;9.00;2.60;;;;;;;;;;4991251;28;20042;-81
2022/06/06 13:50:21;;;;;;;5.78;2.50;;;;;;;;;;4988842;28;20427;-81
2022/06/06 13:52:50;;;;;;;10.85;3.20;;;;;;;;;;5018450;28;20441;-85
2022/06/06 13:55:23;;;;;;;4.03;2.45;;;;;;;;;;5053121;28;20070;-84
2022/06/06 13:57:58;;;;;;;4.47;2.67;;;;;;;;;;5054254;28;20051;-78
2022/06/06 14:00:35;;;;;;;3.75;2.60;;;;;;;;;;5057500;28;20051;-82
2022/06/06 14:03:26;;;;;;;7.72;2.80;;;;;;;;;;5056182;28;20029;-81
2022/06/06 14:06:14;;;;;;;4.57;2.33;;;;;;;;;;5057250;28;20098;-79
2022/06/06 14:08:47;;;;;;;5.47;2.30;;;;;;;;;;5045870;28;20056;-81
2022/06/06 14:11:16;;;;;;;9.40;3.10;;;;;;;;;;5043635;28;20029;-80
2022/06/06 14:13:48;;;;;;;6.47;2.65;;;;;;;;;;5050035;28;20064;-80
2022/06/06 14:16:34;;;;;;;8.90;3.08;;;;;;;;;;5050894;28;20033;-80
2022/06/06 14:19:16;;;;;;;8.38;2.70;;;;;;;;;;5045461;28;20486;-79
2022/06/06 14:21:57;;;;;;;8.90;2.60;;;;;;;;;;5050065;28;20048;-79
2022/06/06 14:24:25;;;;;;;8.40;2.80;;;;;;;;;;5049016;28;20028;-79
2022/06/06 14:26:56;;;;;;;12.20;3.65;;;;;;;;;;5051768;28;20525;-79
2022/06/06 14:29:24;;;;;;;5.70;2.75;;;;;;;;;;5050934;28;20028;-78
2022/06/06 14:31:54;;;;;;;9.38;2.97;;;;;;;;;;5044489;28;20079;-80
2022/06/06 14:34:39;;;;;;;7.53;3.20;;;;;;;;;;5042333;28;20026;-77
2022/06/06 14:37:06;;;;;;;5.82;2.65;;;;;;;;;;5044783;28;20025;-80
2022/06/06 14:39:35;;;;;;;9.82;3.83;;;;;;;;;;5051207;28;20037;-79
2022/06/06 14:42:03;;;;;;;8.52;2.90;;;;;;;;;;5051367;28;20025;-80
2022/06/06 14:44:31;;;;;;;6.35;2.53;;;;;;;;;;5051594;28;20115;-76
2022/06/06 14:47:08;;;;;;;6.50;2.45;;;;;;;;;;5051662;28;20096;-77
2022/06/06 14:49:35;;;;;;;10.10;2.70;;;;;;;;;;5051111;28;20031;-79
2022/06/06 14:52:08;;;;;;;19.73;6.10;;;;;;;;;;5058841;28;20104;-75
2022/06/06 14:54:36;;;;;;;14.77;4.72;;;;;;;;;;5051929;28;20025;-74
2022/06/06 14:57:04;;;;;;;8.60;2.70;;;;;;;;;;5050699;28;20116;-75
2022/06/06 14:59:38;;;;;;;9.85;3.38;;;;;;;;;;5050230;28;20539;-74
2022/06/06 15:02:10;;;;;;;53.38;4.78;;;;;;;;;;5050558;28;20032;-75
2022/06/06 15:04:36;;;;;;;16.20;3.40;;;;;;;;;;5052080;28;20025;-75
2022/06/06 15:07:03;;;;;;;5.95;2.90;;;;;;;;;;5051550;28;20051;-74
2022/06/06 15:09:32;;;;;;;7.47;3.70;;;;;;;;;;5064389;28;20083;-76
2022/06/06 15:11:59;;;;;;;11.40;3.38;;;;;;;;;;5070589;28;20029;-74
2022/06/06 15:14:28;;;;;;;25.27;5.00;;;;;;;;;;5070877;28;20394;-77
2022/06/06 15:16:55;;;;;;;19.30;5.60;;;;;;;;;;5071864;28;20037;-76
2022/06/06 15:19:45;;;;;;;9.32;3.35;;;;;;;;;;5056477;28;20036;-73
2022/06/06 15:22:17;;;;;;;9.68;4.30;;;;;;;;;;5057778;28;20052;-74
2022/06/06 15:24:45;;;;;;;10.05;3.17;;;;;;;;;;5070162;28;20103;-74
2022/06/06 15:27:20;;;;;;;5.43;2.50;;;;;;;;;;5074980;28;20032;-75
2022/06/06 15:29:56;;;;;;;8.23;2.60;;;;;;;;;;5078333;28;20024;-74
2022/06/06 15:32:25;;;;;;;5.85;2.63;;;;;;;;;;5060562;28;20099;-75
2022/06/06 15:35:19;;;;;;;9.52;2.65;;;;;;;;;;5079064;28;20024;-77
2022/06/06 15:37:52;;;;;;;4.43;2.72;;;;;;;;;;5070746;28;20024;-77
2022/06/06 15:40:24;;;;;;;15.77;3.65;;;;;;;;;;5072543;28;20032;-76
2022/06/06 15:43:02;;;;;;;8.30;2.80;;;;;;;;;;5073691;28;20020;-78
2022/06/06 15:45:47;;;;;;;5.10;2.30;;;;;;;;;;5074830;28;20020;-76